sensor_id;sensor_type;location;lat;lon;timestamp;P1;durP1;ratioP1;P2;durP2;ratioP2
64641;SDS011;59936;51.490;5.436;2023-04-03T00:03:26;6.50;;;5.70;;
64641;SDS011;59936;51.490;5.436;2023-04-03T00:05:52;8.60;;;6.30;;
64641;SDS011;59936;51.490;5.436;2023-04-03T00:08:18;10.30;;;5.70;;
64641;SDS011;59936;51.490;5.436;2023-04-03T00:13:10;8.55;;;6.50;;
64641;SDS011;59936;51.490;5.436;2023-04-03T00:15:37;8.00;;;7.00;;
64641;SDS011;59936;51.490;5.436;2023-04-03T00:18:03;11.30;;;8.20;;
64641;SDS011;59936;51.490;5.436;2023-04-03T00:20:29;11.70;;;7.30;;
64641;SDS011;59936;51.490;5.436;2023-04-03T00:22:55;8.60;;;7.70;;
64641;SDS011;59936;51.490;5.436;2023-04-03T00:25:21;9.90;;;8.30;;
64641;SDS011;59936;51.490;5.436;2023-04-03T00:27:47;10.80;;;8.80;;
64641;SDS011;59936;51.490;5.436;2023-04-03T00:30:14;12.70;;;8.20;;
64641;SDS011;59936;51.490;5.436;2023-04-03T00:32:42;9.90;;;7.70;;
64641;SDS011;59936;51.490;5.436;2023-04-03T00:35:08;12.10;;;9.70;;
64641;SDS011;59936;51.490;5.436;2023-04-03T00:37:34;11.40;;;9.20;;
64641;SDS011;59936;51.490;5.436;2023-04-03T00:40:00;18.70;;;10.00;;
64641;SDS011;59936;51.490;5.436;2023-04-03T00:42:26;13.30;;;8.60;;
64641;SDS011;59936;51.490;5.436;2023-04-03T00:47:20;9.90;;;7.70;;
64641;SDS011;59936;51.490;5.436;2023-04-03T00:52:13;10.30;;;7.35;;
64641;SDS011;59936;51.490;5.436;2023-04-03T00:54:43;13.10;;;8.60;;
64641;SDS011;59936;51.490;5.436;2023-04-03T00:57:13;10.90;;;8.70;;
64641;SDS011;59936;51.490;5.436;2023-04-03T00:59:43;9.20;;;8.00;;
64641;SDS011;59936;51.490;5.436;2023-04-03T01:02:11;12.10;;;8.80;;
64641;SDS011;59936;51.490;5.436;2023-04-03T01:04:39;14.80;;;9.10;;
64641;SDS011;59936;51.490;5.436;2023-04-03T01:07:08;15.70;;;8.00;;
64641;SDS011;59936;51.490;5.436;2023-04-03T01:09:36;18.30;;;9.60;;
64641;SDS011;59936;51.490;5.436;2023-04-03T01:12:17;9.50;;;8.60;;
64641;SDS011;59936;51.490;5.436;2023-04-03T01:14:44;10.70;;;8.00;;
64641;SDS011;59936;51.490;5.436;2023-04-03T01:25:17;10.60;;;8.30;;
64641;SDS011;59936;51.490;5.436;2023-04-03T01:27:43;21.50;;;9.00;;
64641;SDS011;59936;51.490;5.436;2023-04-03T01:30:09;10.90;;;8.50;;
64641;SDS011;59936;51.490;5.436;2023-04-03T01:32:35;12.70;;;8.60;;
64641;SDS011;59936;51.490;5.436;2023-04-03T01:35:01;12.30;;;8.90;;
64641;SDS011;59936;51.490;5.436;2023-04-03T01:37:27;13.40;;;8.10;;
64641;SDS011;59936;51.490;5.436;2023-04-03T01:39:53;8.90;;;7.10;;
64641;SDS011;59936;51.490;5.436;2023-04-03T01:42:19;14.90;;;7.80;;
64641;SDS011;59936;51.490;5.436;2023-04-03T01:44:44;8.80;;;6.90;;
64641;SDS011;59936;51.490;5.436;2023-04-03T01:47:10;8.40;;;7.50;;
64641;SDS011;59936;51.490;5.436;2023-04-03T01:49:36;12.00;;;7.90;;
64641;SDS011;59936;51.490;5.436;2023-04-03T01:52:02;9.60;;;7.90;;
64641;SDS011;59936;51.490;5.436;2023-04-03T01:54:28;14.00;;;9.00;;
64641;SDS011;59936;51.490;5.436;2023-04-03T01:56:54;10.30;;;8.60;;
64641;SDS011;59936;51.490;5.436;2023-04-03T01:59:20;17.40;;;9.30;;
64641;SDS011;59936;51.490;5.436;2023-04-03T02:01:46;13.90;;;9.30;;
64641;SDS011;59936;51.490;5.436;2023-04-03T02:04:11;12.60;;;8.50;;
64641;SDS011;59936;51.490;5.436;2023-04-03T02:06:37;14.00;;;8.20;;
64641;SDS011;59936;51.490;5.436;2023-04-03T02:09:03;9.80;;;8.80;;
64641;SDS011;59936;51.490;5.436;2023-04-03T02:11:30;9.70;;;7.90;;
64641;SDS011;59936;51.490;5.436;2023-04-03T02:13:56;11.30;;;9.10;;
64641;SDS011;59936;51.490;5.436;2023-04-03T02:16:22;11.20;;;8.80;;
64641;SDS011;59936;51.490;5.436;2023-04-03T02:18:48;16.20;;;8.80;;
64641;SDS011;59936;51.490;5.436;2023-04-03T02:21:14;11.60;;;8.90;;
64641;SDS011;59936;51.490;5.436;2023-04-03T02:23:39;16.70;;;9.90;;
64641;SDS011;59936;51.490;5.436;2023-04-03T02:26:07;17.00;;;9.20;;
64641;SDS011;59936;51.490;5.436;2023-04-03T02:28:36;14.50;;;9.20;;
64641;SDS011;59936;51.490;5.436;2023-04-03T02:33:28;11.60;;;7.70;;
64641;SDS011;59936;51.490;5.436;2023-04-03T02:35:55;13.50;;;7.70;;
64641;SDS011;59936;51.490;5.436;2023-04-03T02:38:21;11.70;;;9.00;;
64641;SDS011;59936;51.490;5.436;2023-04-03T02:40:48;12.40;;;9.50;;
64641;SDS011;59936;51.490;5.436;2023-04-03T02:43:14;12.60;;;10.10;;
64641;SDS011;59936;51.490;5.436;2023-04-03T02:45:40;12.60;;;10.30;;
64641;SDS011;59936;51.490;5.436;2023-04-03T02:48:06;17.70;;;10.30;;
64641;SDS011;59936;51.490;5.436;2023-04-03T02:50:32;15.10;;;11.70;;
64641;SDS011;59936;51.490;5.436;2023-04-03T02:52:58;15.10;;;10.10;;
64641;SDS011;59936;51.490;5.436;2023-04-03T02:55:23;14.30;;;10.90;;
64641;SDS011;59936;51.490;5.436;2023-04-03T02:57:49;15.70;;;11.30;;
64641;SDS011;59936;51.490;5.436;2023-04-03T03:00:15;14.90;;;11.80;;
64641;SDS011;59936;51.490;5.436;2023-04-03T03:02:41;15.20;;;12.00;;
64641;SDS011;59936;51.490;5.436;2023-04-03T03:05:07;16.00;;;12.20;;
64641;SDS011;59936;51.490;5.436;2023-04-03T03:09:59;13.35;;;9.60;;
64641;SDS011;59936;51.490;5.436;2023-04-03T03:12:25;14.90;;;9.50;;
64641;SDS011;59936;51.490;5.436;2023-04-03T03:14:51;12.80;;;9.90;;
64641;SDS011;59936;51.490;5.436;2023-04-03T03:17:17;13.50;;;8.90;;
64641;SDS011;59936;51.490;5.436;2023-04-03T03:19:43;15.20;;;9.40;;
64641;SDS011;59936;51.490;5.436;2023-04-03T03:22:09;12.40;;;9.10;;
64641;SDS011;59936;51.490;5.436;2023-04-03T03:24:34;12.60;;;8.70;;
64641;SDS011;59936;51.490;5.436;2023-04-03T03:27:00;9.60;;;7.70;;
64641;SDS011;59936;51.490;5.436;2023-04-03T03:29:26;9.30;;;8.30;;
64641;SDS011;59936;51.490;5.436;2023-04-03T03:31:52;9.70;;;8.50;;
64641;SDS011;59936;51.490;5.436;2023-04-03T03:34:18;12.30;;;8.70;;
64641;SDS011;59936;51.490;5.436;2023-04-03T03:36:44;11.10;;;9.30;;
64641;SDS011;59936;51.490;5.436;2023-04-03T03:39:10;9.50;;;8.50;;
64641;SDS011;59936;51.490;5.436;2023-04-03T03:41:35;12.00;;;8.70;;
64641;SDS011;59936;51.490;5.436;2023-04-03T03:44:01;9.80;;;8.20;;
64641;SDS011;59936;51.490;5.436;2023-04-03T03:46:27;12.30;;;9.00;;
64641;SDS011;59936;51.490;5.436;2023-04-03T03:48:53;13.60;;;7.80;;
64641;SDS011;59936;51.490;5.436;2023-04-03T03:51:19;13.10;;;8.70;;
64641;SDS011;59936;51.490;5.436;2023-04-03T03:53:45;8.70;;;7.70;;
64641;SDS011;59936;51.490;5.436;2023-04-03T03:56:11;11.20;;;8.60;;
64641;SDS011;59936;51.490;5.436;2023-04-03T03:58:37;8.70;;;7.50;;
64641;SDS011;59936;51.490;5.436;2023-04-03T04:01:04;9.80;;;7.20;;
64641;SDS011;59936;51.490;5.436;2023-04-03T04:03:31;11.50;;;8.70;;
64641;SDS011;59936;51.490;5.436;2023-04-03T04:05:57;13.20;;;7.20;;
64641;SDS011;59936;51.490;5.436;2023-04-03T04:08:24;9.00;;;7.40;;
64641;SDS011;59936;51.490;5.436;2023-04-03T04:13:15;12.55;;;5.30;;
64641;SDS011;59936;51.490;5.436;2023-04-03T04:18:08;9.50;;;5.10;;
64641;SDS011;59936;51.490;5.436;2023-04-03T04:20:33;7.50;;;5.40;;
64641;SDS011;59936;51.490;5.436;2023-04-03T04:22:59;6.80;;;6.10;;
64641;SDS011;59936;51.490;5.436;2023-04-03T04:25:25;8.60;;;6.70;;
64641;SDS011;59936;51.490;5.436;2023-04-03T04:27:51;12.80;;;6.70;;
64641;SDS011;59936;51.490;5.436;2023-04-03T04:30:17;10.50;;;6.90;;
64641;SDS011;59936;51.490;5.436;2023-04-03T04:32:43;9.90;;;6.60;;
64641;SDS011;59936;51.490;5.436;2023-04-03T04:35:09;12.20;;;6.90;;
64641;SDS011;59936;51.490;5.436;2023-04-03T04:37:34;15.90;;;6.90;;
64641;SDS011;59936;51.490;5.436;2023-04-03T04:40:00;14.30;;;6.70;;
64641;SDS011;59936;51.490;5.436;2023-04-03T04:42:26;9.20;;;6.70;;
64641;SDS011;59936;51.490;5.436;2023-04-03T04:44:52;6.90;;;5.70;;
64641;SDS011;59936;51.490;5.436;2023-04-03T04:47:18;9.70;;;6.80;;
64641;SDS011;59936;51.490;5.436;2023-04-03T04:49:44;8.60;;;6.70;;
64641;SDS011;59936;51.490;5.436;2023-04-03T04:52:10;10.30;;;6.30;;
64641;SDS011;59936;51.490;5.436;2023-04-03T04:54:36;12.70;;;5.90;;
64641;SDS011;59936;51.490;5.436;2023-04-03T04:57:02;9.80;;;5.70;;
64641;SDS011;59936;51.490;5.436;2023-04-03T04:59:27;6.40;;;5.50;;
64641;SDS011;59936;51.490;5.436;2023-04-03T05:01:53;6.30;;;5.20;;
64641;SDS011;59936;51.490;5.436;2023-04-03T05:04:19;7.90;;;4.80;;
64641;SDS011;59936;51.490;5.436;2023-04-03T05:06:45;8.90;;;5.10;;
64641;SDS011;59936;51.490;5.436;2023-04-03T05:09:11;7.70;;;4.70;;
64641;SDS011;59936;51.490;5.436;2023-04-03T05:11:37;10.50;;;5.80;;
64641;SDS011;59936;51.490;5.436;2023-04-03T05:14:03;6.10;;;4.60;;
64641;SDS011;59936;51.490;5.436;2023-04-03T05:16:28;7.20;;;4.50;;
64641;SDS011;59936;51.490;5.436;2023-04-03T05:18:54;12.80;;;6.40;;
64641;SDS011;59936;51.490;5.436;2023-04-03T05:21:20;7.10;;;4.80;;
64641;SDS011;59936;51.490;5.436;2023-04-03T05:23:46;7.30;;;5.30;;
64641;SDS011;59936;51.490;5.436;2023-04-03T05:26:12;7.90;;;5.00;;
64641;SDS011;59936;51.490;5.436;2023-04-03T05:28:38;9.20;;;5.00;;
64641;SDS011;59936;51.490;5.436;2023-04-03T05:31:03;7.80;;;5.80;;
64641;SDS011;59936;51.490;5.436;2023-04-03T05:33:29;7.70;;;5.40;;
64641;SDS011;59936;51.490;5.436;2023-04-03T05:35:55;8.30;;;5.60;;
64641;SDS011;59936;51.490;5.436;2023-04-03T05:38:21;6.70;;;5.50;;
64641;SDS011;59936;51.490;5.436;2023-04-03T05:40:47;5.20;;;4.70;;
64641;SDS011;59936;51.490;5.436;2023-04-03T05:43:13;6.60;;;4.50;;
64641;SDS011;59936;51.490;5.436;2023-04-03T05:45:39;10.60;;;4.90;;
64641;SDS011;59936;51.490;5.436;2023-04-03T05:48:04;8.30;;;4.50;;
64641;SDS011;59936;51.490;5.436;2023-04-03T05:50:30;9.30;;;4.80;;
64641;SDS011;59936;51.490;5.436;2023-04-03T05:52:57;9.10;;;4.30;;
64641;SDS011;59936;51.490;5.436;2023-04-03T05:55:23;5.00;;;4.20;;
64641;SDS011;59936;51.490;5.436;2023-04-03T05:57:49;6.20;;;4.60;;
64641;SDS011;59936;51.490;5.436;2023-04-03T06:00:15;12.50;;;3.90;;
64641;SDS011;59936;51.490;5.436;2023-04-03T06:02:41;8.70;;;3.60;;
64641;SDS011;59936;51.490;5.436;2023-04-03T06:05:08;4.60;;;3.50;;
64641;SDS011;59936;51.490;5.436;2023-04-03T06:07:34;7.00;;;3.20;;
64641;SDS011;59936;51.490;5.436;2023-04-03T06:10:00;9.40;;;3.10;;
64641;SDS011;59936;51.490;5.436;2023-04-03T06:12:27;7.30;;;3.90;;
64641;SDS011;59936;51.490;5.436;2023-04-03T06:14:53;4.60;;;3.60;;
64641;SDS011;59936;51.490;5.436;2023-04-03T06:17:18;9.30;;;4.00;;
64641;SDS011;59936;51.490;5.436;2023-04-03T06:19:44;6.40;;;4.20;;
64641;SDS011;59936;51.490;5.436;2023-04-03T06:22:11;12.30;;;3.20;;
64641;SDS011;59936;51.490;5.436;2023-04-03T06:27:03;4.50;;;2.90;;
64641;SDS011;59936;51.490;5.436;2023-04-03T06:29:29;5.20;;;3.20;;
64641;SDS011;59936;51.490;5.436;2023-04-03T06:34:21;3.40;;;2.60;;
64641;SDS011;59936;51.490;5.436;2023-04-03T06:36:47;8.10;;;3.40;;
64641;SDS011;59936;51.490;5.436;2023-04-03T06:39:14;6.10;;;3.10;;
64641;SDS011;59936;51.490;5.436;2023-04-03T06:41:42;2.00;;;1.70;;
64641;SDS011;59936;51.490;5.436;2023-04-03T06:44:08;6.20;;;2.90;;
64641;SDS011;59936;51.490;5.436;2023-04-03T06:46:34;5.10;;;3.10;;
64641;SDS011;59936;51.490;5.436;2023-04-03T06:48:59;8.90;;;3.20;;
64641;SDS011;59936;51.490;5.436;2023-04-03T06:51:26;10.40;;;4.00;;
64641;SDS011;59936;51.490;5.436;2023-04-03T06:53:54;6.00;;;3.50;;
64641;SDS011;59936;51.490;5.436;2023-04-03T06:56:21;5.60;;;2.80;;
64641;SDS011;59936;51.490;5.436;2023-04-03T06:58:47;4.10;;;2.50;;
64641;SDS011;59936;51.490;5.436;2023-04-03T07:01:15;10.70;;;2.50;;
64641;SDS011;59936;51.490;5.436;2023-04-03T07:03:41;4.10;;;2.50;;
64641;SDS011;59936;51.490;5.436;2023-04-03T07:06:09;6.70;;;2.50;;
64641;SDS011;59936;51.490;5.436;2023-04-03T07:08:37;7.10;;;2.50;;
64641;SDS011;59936;51.490;5.436;2023-04-03T07:11:03;5.60;;;2.40;;
64641;SDS011;59936;51.490;5.436;2023-04-03T07:15:55;4.25;;;2.45;;
64641;SDS011;59936;51.490;5.436;2023-04-03T07:18:21;4.20;;;2.70;;
64641;SDS011;59936;51.490;5.436;2023-04-03T07:23:13;2.80;;;2.10;;
64641;SDS011;59936;51.490;5.436;2023-04-03T07:25:43;4.60;;;2.00;;
64641;SDS011;59936;51.490;5.436;2023-04-03T07:28:09;4.60;;;2.50;;
64641;SDS011;59936;51.490;5.436;2023-04-03T07:30:41;1.40;;;1.30;;
64641;SDS011;59936;51.490;5.436;2023-04-03T07:33:08;4.30;;;2.60;;
64641;SDS011;59936;51.490;5.436;2023-04-03T07:35:34;4.20;;;2.40;;
64641;SDS011;59936;51.490;5.436;2023-04-03T07:38:00;4.30;;;2.10;;
64641;SDS011;59936;51.490;5.436;2023-04-03T07:42:51;4.45;;;2.10;;
64641;SDS011;59936;51.490;5.436;2023-04-03T07:47:43;3.60;;;1.90;;
64641;SDS011;59936;51.490;5.436;2023-04-03T07:52:34;4.10;;;2.40;;
64641;SDS011;59936;51.490;5.436;2023-04-03T07:57:25;2.60;;;2.25;;
64641;SDS011;59936;51.490;5.436;2023-04-03T08:02:17;7.80;;;2.30;;
64641;SDS011;59936;51.490;5.436;2023-04-03T08:07:08;2.40;;;2.00;;
64641;SDS011;59936;51.490;5.436;2023-04-03T08:12:00;3.50;;;2.10;;
64641;SDS011;59936;51.490;5.436;2023-04-03T08:16:52;2.10;;;1.60;;
64641;SDS011;59936;51.490;5.436;2023-04-03T08:21:43;6.90;;;2.70;;
64641;SDS011;59936;51.490;5.436;2023-04-03T08:24:10;2.90;;;1.80;;
64641;SDS011;59936;51.490;5.436;2023-04-03T08:29:01;3.10;;;2.10;;
64641;SDS011;59936;51.490;5.436;2023-04-03T08:31:27;2.00;;;1.50;;
64641;SDS011;59936;51.490;5.436;2023-04-03T08:38:49;5.10;;;2.00;;
64641;SDS011;59936;51.490;5.436;2023-04-03T08:46:16;4.40;;;2.20;;
64641;SDS011;59936;51.490;5.436;2023-04-03T08:48:44;6.90;;;2.20;;
64641;SDS011;59936;51.490;5.436;2023-04-03T08:51:15;6.00;;;2.00;;
64641;SDS011;59936;51.490;5.436;2023-04-03T08:53:46;2.70;;;1.90;;
64641;SDS011;59936;51.490;5.436;2023-04-03T08:56:23;5.00;;;2.10;;
64641;SDS011;59936;51.490;5.436;2023-04-03T08:58:55;5.20;;;2.30;;
64641;SDS011;59936;51.490;5.436;2023-04-03T09:03:53;2.90;;;1.90;;
64641;SDS011;59936;51.490;5.436;2023-04-03T09:06:20;6.10;;;1.50;;
64641;SDS011;59936;51.490;5.436;2023-04-03T09:08:50;2.60;;;1.40;;
64641;SDS011;59936;51.490;5.436;2023-04-03T09:11:26;4.60;;;1.70;;
64641;SDS011;59936;51.490;5.436;2023-04-03T09:14:00;3.30;;;1.80;;
64641;SDS011;59936;51.490;5.436;2023-04-03T09:21:57;2.50;;;1.60;;
64641;SDS011;59936;51.490;5.436;2023-04-03T09:24:26;1.70;;;1.60;;
64641;SDS011;59936;51.490;5.436;2023-04-03T09:26:53;1.70;;;1.60;;
64641;SDS011;59936;51.490;5.436;2023-04-03T09:29:23;2.00;;;1.80;;
64641;SDS011;59936;51.490;5.436;2023-04-03T09:31:51;2.10;;;1.60;;
64641;SDS011;59936;51.490;5.436;2023-04-03T09:34:28;1.90;;;1.30;;
64641;SDS011;59936;51.490;5.436;2023-04-03T09:37:00;2.80;;;1.60;;
64641;SDS011;59936;51.490;5.436;2023-04-03T09:39:28;3.10;;;1.30;;
64641;SDS011;59936;51.490;5.436;2023-04-03T09:42:05;2.40;;;1.50;;
64641;SDS011;59936;51.490;5.436;2023-04-03T09:44:42;2.50;;;1.40;;
64641;SDS011;59936;51.490;5.436;2023-04-03T09:47:21;2.10;;;1.30;;
64641;SDS011;59936;51.490;5.436;2023-04-03T09:49:48;1.50;;;1.40;;
64641;SDS011;59936;51.490;5.436;2023-04-03T09:52:18;2.60;;;1.10;;
64641;SDS011;59936;51.490;5.436;2023-04-03T09:54:52;1.30;;;1.10;;
64641;SDS011;59936;51.490;5.436;2023-04-03T09:57:18;1.30;;;1.20;;
64641;SDS011;59936;51.490;5.436;2023-04-03T09:59:46;1.90;;;1.00;;
64641;SDS011;59936;51.490;5.436;2023-04-03T10:04:53;4.80;;;1.50;;
64641;SDS011;59936;51.490;5.436;2023-04-03T10:07:52;2.20;;;1.60;;
64641;SDS011;59936;51.490;5.436;2023-04-03T10:12:40;1.90;;;1.60;;
64641;SDS011;59936;51.490;5.436;2023-04-03T10:15:13;1.90;;;1.30;;
64641;SDS011;59936;51.490;5.436;2023-04-03T10:18:15;2.50;;;1.20;;
64641;SDS011;59936;51.490;5.436;2023-04-03T10:20:47;1.30;;;1.20;;
64641;SDS011;59936;51.490;5.436;2023-04-03T10:23:21;2.50;;;1.20;;
64641;SDS011;59936;51.490;5.436;2023-04-03T10:34:38;1.30;;;1.20;;
64641;SDS011;59936;51.490;5.436;2023-04-03T10:37:28;1.10;;;1.10;;
64641;SDS011;59936;51.490;5.436;2023-04-03T10:46:09;1.70;;;1.00;;
64641;SDS011;59936;51.490;5.436;2023-04-03T10:57:12;1.00;;;1.00;;
64641;SDS011;59936;51.490;5.436;2023-04-03T11:07:39;2.40;;;1.00;;
64641;SDS011;59936;51.490;5.436;2023-04-03T11:10:15;3.70;;;1.30;;
64641;SDS011;59936;51.490;5.436;2023-04-03T11:12:48;1.10;;;0.90;;
64641;SDS011;59936;51.490;5.436;2023-04-03T11:15:18;4.20;;;1.20;;
64641;SDS011;59936;51.490;5.436;2023-04-03T11:17:54;2.60;;;1.20;;
64641;SDS011;59936;51.490;5.436;2023-04-03T11:20:28;1.90;;;1.00;;
64641;SDS011;59936;51.490;5.436;2023-04-03T11:26:06;1.10;;;1.10;;
64641;SDS011;59936;51.490;5.436;2023-04-03T11:28:35;3.60;;;1.50;;
64641;SDS011;59936;51.490;5.436;2023-04-03T11:31:07;2.20;;;1.20;;
64641;SDS011;59936;51.490;5.436;2023-04-03T11:33:37;1.60;;;1.10;;
64641;SDS011;59936;51.490;5.436;2023-04-03T11:36:18;4.30;;;1.30;;
64641;SDS011;59936;51.490;5.436;2023-04-03T11:38:49;0.70;;;0.70;;
64641;SDS011;59936;51.490;5.436;2023-04-03T11:41:24;0.80;;;0.80;;
64641;SDS011;59936;51.490;5.436;2023-04-03T12:05:50;2.10;;;1.10;;
64641;SDS011;59936;51.490;5.436;2023-04-03T12:08:36;1.00;;;1.00;;
64641;SDS011;59936;51.490;5.436;2023-04-03T12:19:03;2.00;;;0.90;;
64641;SDS011;59936;51.490;5.436;2023-04-03T12:32:15;1.30;;;1.20;;
64641;SDS011;59936;51.490;5.436;2023-04-03T12:40:30;2.40;;;1.10;;
64641;SDS011;59936;51.490;5.436;2023-04-03T12:43:37;1.80;;;1.10;;
64641;SDS011;59936;51.490;5.436;2023-04-03T12:46:14;4.10;;;1.30;;
64641;SDS011;59936;51.490;5.436;2023-04-03T12:48:48;2.90;;;1.00;;
64641;SDS011;59936;51.490;5.436;2023-04-03T12:54:03;1.30;;;1.20;;
64641;SDS011;59936;51.490;5.436;2023-04-03T12:56:38;2.90;;;1.70;;
64641;SDS011;59936;51.490;5.436;2023-04-03T12:59:21;3.20;;;1.20;;
64641;SDS011;59936;51.490;5.436;2023-04-03T13:01:58;1.40;;;1.30;;
64641;SDS011;59936;51.490;5.436;2023-04-03T13:04:26;2.10;;;1.40;;
64641;SDS011;59936;51.490;5.436;2023-04-03T13:06:54;2.50;;;1.20;;
64641;SDS011;59936;51.490;5.436;2023-04-03T13:11:57;3.20;;;1.20;;
64641;SDS011;59936;51.490;5.436;2023-04-03T13:14:26;4.80;;;1.60;;
64641;SDS011;59936;51.490;5.436;2023-04-03T13:17:26;2.10;;;1.10;;
64641;SDS011;59936;51.490;5.436;2023-04-03T13:19:45;1.50;;;1.40;;
64641;SDS011;59936;51.490;5.436;2023-04-03T13:24:43;2.90;;;1.40;;
64641;SDS011;59936;51.490;5.436;2023-04-03T13:27:11;2.00;;;1.70;;
64641;SDS011;59936;51.490;5.436;2023-04-03T13:29:38;1.80;;;1.50;;
64641;SDS011;59936;51.490;5.436;2023-04-03T13:32:05;4.60;;;1.50;;
64641;SDS011;59936;51.490;5.436;2023-04-03T13:34:36;1.60;;;1.40;;
64641;SDS011;59936;51.490;5.436;2023-04-03T13:37:05;3.50;;;1.70;;
64641;SDS011;59936;51.490;5.436;2023-04-03T13:42:00;3.30;;;1.70;;
64641;SDS011;59936;51.490;5.436;2023-04-03T13:47:17;4.80;;;1.80;;
64641;SDS011;59936;51.490;5.436;2023-04-03T13:49:46;3.00;;;1.50;;
64641;SDS011;59936;51.490;5.436;2023-04-03T13:55:01;1.40;;;1.30;;
64641;SDS011;59936;51.490;5.436;2023-04-03T13:57:36;1.80;;;1.50;;
64641;SDS011;59936;51.490;5.436;2023-04-03T14:00:21;4.70;;;1.60;;
64641;SDS011;59936;51.490;5.436;2023-04-03T14:03:00;1.60;;;1.40;;
64641;SDS011;59936;51.490;5.436;2023-04-03T14:05:26;3.10;;;1.30;;
64641;SDS011;59936;51.490;5.436;2023-04-03T14:10:19;2.00;;;1.70;;
64641;SDS011;59936;51.490;5.436;2023-04-03T14:12:45;2.80;;;1.50;;
64641;SDS011;59936;51.490;5.436;2023-04-03T14:17:47;2.40;;;1.70;;
64641;SDS011;59936;51.490;5.436;2023-04-03T14:22:43;2.50;;;1.20;;
64641;SDS011;59936;51.490;5.436;2023-04-03T14:25:10;2.30;;;1.40;;
64641;SDS011;59936;51.490;5.436;2023-04-03T14:30:03;2.50;;;1.60;;
64641;SDS011;59936;51.490;5.436;2023-04-03T14:32:33;1.70;;;1.60;;
64641;SDS011;59936;51.490;5.436;2023-04-03T14:37:25;4.05;;;1.90;;
64641;SDS011;59936;51.490;5.436;2023-04-03T14:39:53;1.90;;;1.80;;
64641;SDS011;59936;51.490;5.436;2023-04-03T14:42:22;1.90;;;1.60;;
64641;SDS011;59936;51.490;5.436;2023-04-03T14:44:50;2.60;;;1.90;;
64641;SDS011;59936;51.490;5.436;2023-04-03T14:47:18;1.80;;;1.70;;
64641;SDS011;59936;51.490;5.436;2023-04-03T14:49:46;3.90;;;1.70;;
64641;SDS011;59936;51.490;5.436;2023-04-03T14:52:16;3.10;;;1.90;;
64641;SDS011;59936;51.490;5.436;2023-04-03T14:54:45;5.30;;;1.70;;
64641;SDS011;59936;51.490;5.436;2023-04-03T14:57:13;1.90;;;1.70;;
64641;SDS011;59936;51.490;5.436;2023-04-03T14:59:43;4.00;;;1.50;;
64641;SDS011;59936;51.490;5.436;2023-04-03T15:04:56;1.90;;;1.70;;
64641;SDS011;59936;51.490;5.436;2023-04-03T15:07:24;5.30;;;1.90;;
64641;SDS011;59936;51.490;5.436;2023-04-03T15:09:52;2.30;;;1.70;;
64641;SDS011;59936;51.490;5.436;2023-04-03T15:14:43;4.75;;;1.85;;
64641;SDS011;59936;51.490;5.436;2023-04-03T15:19:43;3.20;;;2.00;;
64641;SDS011;59936;51.490;5.436;2023-04-03T15:22:16;2.60;;;1.70;;
64641;SDS011;59936;51.490;5.436;2023-04-03T15:24:43;1.70;;;1.40;;
64641;SDS011;59936;51.490;5.436;2023-04-03T15:29:36;2.20;;;1.60;;
64641;SDS011;59936;51.490;5.436;2023-04-03T15:32:02;2.20;;;1.60;;
64641;SDS011;59936;51.490;5.436;2023-04-03T15:34:29;2.40;;;1.40;;
64641;SDS011;59936;51.490;5.436;2023-04-03T15:39:20;2.10;;;1.65;;
64641;SDS011;59936;51.490;5.436;2023-04-03T15:41:46;1.40;;;1.30;;
64641;SDS011;59936;51.490;5.436;2023-04-03T15:46:38;3.60;;;1.65;;
64641;SDS011;59936;51.490;5.436;2023-04-03T15:49:04;2.50;;;1.90;;
64641;SDS011;59936;51.490;5.436;2023-04-03T15:51:31;3.00;;;1.60;;
64641;SDS011;59936;51.490;5.436;2023-04-03T15:56:22;3.40;;;1.60;;
64641;SDS011;59936;51.490;5.436;2023-04-03T16:01:14;3.65;;;1.60;;
64641;SDS011;59936;51.490;5.436;2023-04-03T16:06:07;3.30;;;1.60;;
64641;SDS011;59936;51.490;5.436;2023-04-03T16:10:59;1.55;;;1.40;;
64641;SDS011;59936;51.490;5.436;2023-04-03T16:15:50;1.90;;;1.70;;
64641;SDS011;59936;51.490;5.436;2023-04-03T16:20:42;2.05;;;1.65;;
64641;SDS011;59936;51.490;5.436;2023-04-03T16:25:33;2.85;;;1.70;;
64641;SDS011;59936;51.490;5.436;2023-04-03T16:30:25;2.20;;;1.55;;
64641;SDS011;59936;51.490;5.436;2023-04-03T16:32:51;3.50;;;1.70;;
64641;SDS011;59936;51.490;5.436;2023-04-03T16:37:42;3.45;;;1.70;;
64641;SDS011;59936;51.490;5.436;2023-04-03T16:42:34;1.40;;;1.30;;
64641;SDS011;59936;51.490;5.436;2023-04-03T16:45:00;3.40;;;1.30;;
64641;SDS011;59936;51.490;5.436;2023-04-03T16:49:51;4.70;;;2.10;;
64641;SDS011;59936;51.490;5.436;2023-04-03T16:54:43;2.85;;;1.70;;
64641;SDS011;59936;51.490;5.436;2023-04-03T16:59:34;3.95;;;2.05;;
64641;SDS011;59936;51.490;5.436;2023-04-03T17:04:26;2.10;;;1.70;;
64641;SDS011;59936;51.490;5.436;2023-04-03T17:09:17;2.55;;;1.60;;
64641;SDS011;59936;51.490;5.436;2023-04-03T17:14:09;4.45;;;1.50;;
64641;SDS011;59936;51.490;5.436;2023-04-03T17:19:02;2.10;;;1.50;;
64641;SDS011;59936;51.490;5.436;2023-04-03T17:21:28;1.30;;;1.20;;
64641;SDS011;59936;51.490;5.436;2023-04-03T17:23:59;2.50;;;1.90;;
64641;SDS011;59936;51.490;5.436;2023-04-03T17:26:27;1.40;;;1.30;;
64641;SDS011;59936;51.490;5.436;2023-04-03T17:28:53;2.90;;;1.70;;
64641;SDS011;59936;51.490;5.436;2023-04-03T17:31:19;2.60;;;1.60;;
64641;SDS011;59936;51.490;5.436;2023-04-03T17:36:11;3.00;;;1.60;;
64641;SDS011;59936;51.490;5.436;2023-04-03T17:38:36;3.30;;;1.50;;
64641;SDS011;59936;51.490;5.436;2023-04-03T17:41:04;1.10;;;1.00;;
64641;SDS011;59936;51.490;5.436;2023-04-03T17:43:32;3.50;;;1.40;;
64641;SDS011;59936;51.490;5.436;2023-04-03T17:46:03;0.80;;;0.70;;
64641;SDS011;59936;51.490;5.436;2023-04-03T17:48:30;1.70;;;1.50;;
64641;SDS011;59936;51.490;5.436;2023-04-03T17:50:58;3.30;;;1.30;;
64641;SDS011;59936;51.490;5.436;2023-04-03T17:53:24;3.10;;;1.50;;
64641;SDS011;59936;51.490;5.436;2023-04-03T17:55:50;4.90;;;1.60;;
64641;SDS011;59936;51.490;5.436;2023-04-03T17:58:16;3.40;;;1.90;;
64641;SDS011;59936;51.490;5.436;2023-04-03T18:00:42;3.40;;;1.70;;
64641;SDS011;59936;51.490;5.436;2023-04-03T18:03:07;1.60;;;1.40;;
64641;SDS011;59936;51.490;5.436;2023-04-03T18:05:33;1.60;;;1.30;;
64641;SDS011;59936;51.490;5.436;2023-04-03T18:08:00;6.30;;;2.10;;
64641;SDS011;59936;51.490;5.436;2023-04-03T18:10:26;4.60;;;1.90;;
64641;SDS011;59936;51.490;5.436;2023-04-03T18:12:52;2.00;;;1.90;;
64641;SDS011;59936;51.490;5.436;2023-04-03T18:15:18;3.90;;;1.60;;
64641;SDS011;59936;51.490;5.436;2023-04-03T18:17:44;4.50;;;1.70;;
64641;SDS011;59936;51.490;5.436;2023-04-03T18:20:10;2.60;;;1.60;;
64641;SDS011;59936;51.490;5.436;2023-04-03T18:22:36;2.80;;;1.80;;
64641;SDS011;59936;51.490;5.436;2023-04-03T18:25:02;4.70;;;2.40;;
64641;SDS011;59936;51.490;5.436;2023-04-03T18:29:55;2.00;;;1.85;;
64641;SDS011;59936;51.490;5.436;2023-04-03T18:32:24;2.00;;;1.40;;
64641;SDS011;59936;51.490;5.436;2023-04-03T18:34:50;3.20;;;1.80;;
64641;SDS011;59936;51.490;5.436;2023-04-03T18:37:16;4.60;;;1.70;;
64641;SDS011;59936;51.490;5.436;2023-04-03T18:39:42;4.50;;;2.00;;
64641;SDS011;59936;51.490;5.436;2023-04-03T18:42:15;2.50;;;1.60;;
64641;SDS011;59936;51.490;5.436;2023-04-03T18:44:44;2.90;;;1.90;;
64641;SDS011;59936;51.490;5.436;2023-04-03T18:47:12;3.10;;;1.70;;
64641;SDS011;59936;51.490;5.436;2023-04-03T18:49:38;3.80;;;1.90;;
64641;SDS011;59936;51.490;5.436;2023-04-03T18:52:06;1.60;;;1.50;;
64641;SDS011;59936;51.490;5.436;2023-04-03T18:54:32;2.70;;;2.10;;
64641;SDS011;59936;51.490;5.436;2023-04-03T18:56:57;2.20;;;2.00;;
64641;SDS011;59936;51.490;5.436;2023-04-03T18:59:23;9.30;;;2.60;;
64641;SDS011;59936;51.490;5.436;2023-04-03T19:01:49;3.70;;;2.20;;